createdAt,value
2018-08-22T00:01:22.298Z,6.50
2018-08-22T00:02:22.298Z,6.50
2018-08-22T00:04:15.227Z,7.20
2018-08-22T00:05:15.244Z,10.20
2018-08-22T00:07:08.192Z,8.20
2018-08-22T00:08:08.183Z,9.00
2018-08-22T00:10:01.146Z,8.60
2018-08-22T00:11:01.140Z,8.90
2018-08-22T00:12:54.072Z,8.80
2018-08-22T00:13:54.085Z,9.50
2018-08-22T00:15:47.040Z,8.80
2018-08-22T00:16:47.033Z,8.80
2018-08-22T00:18:39.967Z,7.80
2018-08-22T00:19:39.980Z,9.00
2018-08-22T00:21:32.929Z,8.40
2018-08-22T00:22:32.960Z,8.60
2018-08-22T00:24:25.855Z,8.40
2018-08-22T00:25:25.906Z,9.00
2018-08-22T00:27:18.819Z,10.10
2018-08-22T00:28:18.817Z,8.80
2018-08-22T00:30:11.768Z,9.00
2018-08-22T00:31:11.766Z,8.50
2018-08-22T00:33:04.698Z,9.40
2018-08-22T00:34:04.709Z,9.40
2018-08-22T00:35:57.660Z,9.50
2018-08-22T00:36:57.654Z,9.20
2018-08-22T00:38:50.581Z,9.10
2018-08-22T00:39:50.599Z,8.50
2018-08-22T00:41:43.553Z,8.50
2018-08-22T00:42:43.541Z,8.20
2018-08-22T00:44:36.480Z,8.90
2018-08-22T00:45:36.495Z,9.10
2018-08-22T00:47:29.457Z,8.60
2018-08-22T00:48:29.452Z,8.90
2018-08-22T00:50:22.397Z,8.90
2018-08-22T00:51:22.395Z,8.90
2018-08-22T00:53:15.321Z,9.60
2018-08-22T00:54:15.340Z,8.80
2018-08-22T00:56:08.300Z,9.80
2018-08-22T00:57:08.295Z,9.00
2018-08-22T00:59:01.229Z,8.60
2018-08-22T01:00:01.243Z,8.00
2018-08-22T01:01:54.194Z,8.30
2018-08-22T01:02:54.193Z,10.20
2018-08-22T01:04:47.120Z,9.00
2018-08-22T01:05:47.142Z,8.40
2018-08-22T01:07:40.094Z,9.30
2018-08-22T01:08:40.084Z,9.00
2018-08-22T01:10:33.031Z,9.90
2018-08-22T01:11:33.026Z,9.40
2018-08-22T01:13:25.952Z,8.90
2018-08-22T01:14:25.972Z,8.40
2018-08-22T01:16:18.931Z,8.50
2018-08-22T01:17:18.929Z,10.20
2018-08-22T01:19:11.852Z,9.40
2018-08-22T01:20:11.869Z,10.40
2018-08-22T01:22:04.817Z,8.30
2018-08-22T01:23:04.809Z,8.10
2018-08-22T01:24:57.748Z,9.00
2018-08-22T01:25:57.759Z,9.40
2018-08-22T01:27:50.719Z,8.70
2018-08-22T01:28:50.707Z,8.40
2018-08-22T01:30:43.654Z,8.40
2018-08-22T01:31:43.653Z,9.20
2018-08-22T01:33:36.583Z,8.40
2018-08-22T01:34:36.599Z,9.20
2018-08-22T01:36:29.549Z,7.80
2018-08-22T01:37:29.543Z,8.10
2018-08-22T01:39:22.475Z,10.60
2018-08-22T01:40:22.490Z,7.70
2018-08-22T01:42:15.448Z,7.20
2018-08-22T01:43:15.445Z,7.40
2018-08-22T01:45:08.369Z,7.80
2018-08-22T01:46:08.388Z,7.70
2018-08-22T01:48:01.333Z,7.30
2018-08-22T01:49:01.334Z,8.20
2018-08-22T01:50:54.278Z,10.60
2018-08-22T01:51:54.276Z,10.90
2018-08-22T01:53:47.202Z,10.80
2018-08-22T01:54:47.221Z,10.80
2018-08-22T02:24:22.592Z,12.90
2018-08-22T02:25:22.577Z,13.80
2018-08-22T02:27:15.511Z,13.70
2018-08-22T02:28:15.502Z,13.60
2018-08-22T02:30:08.432Z,15.00
2018-08-22T02:31:08.437Z,14.30
2018-08-22T02:33:01.383Z,14.50
2018-08-22T02:34:01.374Z,14.60
2018-08-22T02:35:54.292Z,15.50
2018-08-22T02:36:54.305Z,16.00
2018-08-22T02:38:47.254Z,18.20
2018-08-22T02:39:47.249Z,17.10
2018-08-22T02:41:40.198Z,19.20
2018-08-22T02:42:40.188Z,20.60
2018-08-22T02:44:33.117Z,18.30
2018-08-22T02:45:33.130Z,19.20
2018-08-22T02:47:26.076Z,20.30
2018-08-22T02:48:26.069Z,19.80
2018-08-22T02:50:18.998Z,18.70
2018-08-22T02:51:19.011Z,17.30
2018-08-22T02:53:11.958Z,17.70
2018-08-22T02:54:11.962Z,19.20
2018-08-22T02:56:04.885Z,18.50
2018-08-22T02:57:04.899Z,17.50
2018-08-22T02:58:57.851Z,16.70
2018-08-22T02:59:57.840Z,17.50
2018-08-22T03:01:50.785Z,16.70
2018-08-22T03:02:50.780Z,16.60
2018-08-22T03:04:43.706Z,15.80
2018-08-22T03:05:43.717Z,15.70
2018-08-22T03:07:36.669Z,16.00
2018-08-22T03:08:36.662Z,16.10
2018-08-22T03:10:29.588Z,16.20
2018-08-22T03:11:29.604Z,15.60
2018-08-22T03:13:22.549Z,15.20
2018-08-22T03:14:22.549Z,14.50
2018-08-22T03:16:15.971Z,15.00
2018-08-22T03:17:15.983Z,15.90
2018-08-22T03:19:08.930Z,15.70
2018-08-22T03:20:08.925Z,15.40
2018-08-22T03:22:01.883Z,16.20
2018-08-22T03:23:01.877Z,16.60
2018-08-22T03:24:54.803Z,15.10
2018-08-22T03:25:54.820Z,14.80
2018-08-22T03:27:47.763Z,14.70
2018-08-22T03:28:47.765Z,13.70
2018-08-22T03:30:40.692Z,14.50
2018-08-22T03:31:40.708Z,14.30
2018-08-22T03:33:33.656Z,13.90
2018-08-22T03:34:33.654Z,14.60
2018-08-22T03:36:26.589Z,15.90
2018-08-22T03:37:26.600Z,16.10
2018-08-22T03:39:19.548Z,16.10
2018-08-22T03:40:19.541Z,16.60
2018-08-22T03:42:12.490Z,16.60
2018-08-22T03:43:12.484Z,17.00
2018-08-22T03:45:05.412Z,16.50
2018-08-22T03:46:05.430Z,16.50
2018-08-22T03:47:58.383Z,17.00
2018-08-22T03:48:58.375Z,15.60
2018-08-22T03:50:51.306Z,16.60
2018-08-22T03:51:51.315Z,15.60
2018-08-22T03:53:44.273Z,15.70
2018-08-22T03:54:44.260Z,16.50
2018-08-22T03:56:37.188Z,14.80
2018-08-22T03:57:37.207Z,15.20
2018-08-22T03:59:30.150Z,15.20
2018-08-22T04:00:30.148Z,14.20
2018-08-22T04:02:23.094Z,14.60
2018-08-22T04:03:23.087Z,14.10
2018-08-22T04:05:16.015Z,15.00
2018-08-22T04:06:16.031Z,15.00
2018-08-22T04:08:08.990Z,15.10
2018-08-22T04:09:08.979Z,14.20
2018-08-22T04:11:01.909Z,14.60
2018-08-22T04:12:01.928Z,15.20
2018-08-22T04:13:54.911Z,17.10
2018-08-22T04:14:54.873Z,16.10
2018-08-22T04:16:47.806Z,15.80
2018-08-22T04:17:47.818Z,15.40
2018-08-22T04:19:40.768Z,15.60
2018-08-22T04:20:40.762Z,15.90
2018-08-22T04:22:33.714Z,17.40
2018-08-22T04:23:33.705Z,17.90
2018-08-22T04:25:26.636Z,16.40
2018-08-22T04:26:26.652Z,17.40
2018-08-22T04:28:19.595Z,17.50
2018-08-22T04:29:19.591Z,16.80
2018-08-22T04:31:12.520Z,17.10
2018-08-22T04:32:12.538Z,16.80
2018-08-22T04:34:05.486Z,15.60
2018-08-22T04:35:05.479Z,17.40
2018-08-22T04:36:58.413Z,17.10
2018-08-22T04:37:58.429Z,18.20
2018-08-22T04:39:52.370Z,16.60
2018-08-22T04:40:52.366Z,16.50
2018-08-22T04:42:45.317Z,18.00
2018-08-22T04:43:45.313Z,18.50
2018-08-22T04:45:38.241Z,17.50
2018-08-22T04:46:38.252Z,17.70
2018-08-22T04:48:31.209Z,17.90
2018-08-22T04:49:31.199Z,17.60
2018-08-22T04:51:24.128Z,18.00
2018-08-22T04:52:24.141Z,19.00
2018-08-22T04:54:17.092Z,17.90
2018-08-22T04:55:17.085Z,16.60
2018-08-22T04:57:10.020Z,17.80
2018-08-22T04:58:10.029Z,17.10
2018-08-22T05:00:02.975Z,18.00
2018-08-22T05:01:02.975Z,17.40
2018-08-22T05:02:55.920Z,18.10
2018-08-22T05:03:55.920Z,16.70
2018-08-22T05:05:48.845Z,18.00
2018-08-22T05:06:48.861Z,17.40
2018-08-22T05:08:41.808Z,19.20
2018-08-22T05:09:41.805Z,19.50
2018-08-22T05:11:34.729Z,18.50
2018-08-22T05:12:34.792Z,18.60
2018-08-22T05:14:27.695Z,18.80
2018-08-22T05:15:27.691Z,17.70
2018-08-22T05:17:20.619Z,18.80
2018-08-22T05:18:20.633Z,19.60
2018-08-22T05:20:13.580Z,20.30
2018-08-22T05:21:13.575Z,19.80
2018-08-22T05:23:06.524Z,18.50
2018-08-22T05:24:06.520Z,20.10
2018-08-22T05:25:59.450Z,19.50
2018-08-22T05:26:59.463Z,17.90
2018-08-22T05:28:52.410Z,18.20
2018-08-22T05:29:52.406Z,18.80
2018-08-22T05:31:45.342Z,18.20
2018-08-22T05:32:45.346Z,17.30
2018-08-22T05:34:38.297Z,16.70
2018-08-22T05:35:38.297Z,16.30
2018-08-22T05:37:31.218Z,15.90
2018-08-22T05:38:31.232Z,17.00
2018-08-22T05:40:24.183Z,15.60
2018-08-22T05:41:24.176Z,17.00
2018-08-22T05:43:17.125Z,16.30
2018-08-22T05:44:17.123Z,16.10
2018-08-22T05:46:10.049Z,16.20
2018-08-22T05:47:10.070Z,19.00
2018-08-22T05:49:03.026Z,15.60
2018-08-22T05:50:03.018Z,16.30
2018-08-22T05:51:55.951Z,17.20
2018-08-22T05:52:55.967Z,15.50
2018-08-22T05:54:48.912Z,15.30
2018-08-22T05:55:48.907Z,15.90
2018-08-22T05:57:41.906Z,17.00
2018-08-22T05:58:41.852Z,16.50
2018-08-22T06:00:34.802Z,15.90
2018-08-22T06:01:34.796Z,17.60
2018-08-22T06:03:27.800Z,16.10
2018-08-22T06:04:27.743Z,16.20
2018-08-22T06:06:20.673Z,17.00
2018-08-22T06:07:20.690Z,19.30
2018-08-22T06:09:13.693Z,19.80
2018-08-22T06:10:13.639Z,19.40
2018-08-22T06:12:06.576Z,21.90
2018-08-22T06:13:06.585Z,21.30
2018-08-22T06:14:59.532Z,18.10
2018-08-22T06:15:59.527Z,16.90
2018-08-22T06:17:52.466Z,18.80
2018-08-22T06:18:52.474Z,18.90
2018-08-22T06:20:45.423Z,19.60
2018-08-22T06:21:45.423Z,19.30
2018-08-22T06:23:38.377Z,19.80
2018-08-22T06:24:38.371Z,20.40
2018-08-22T06:26:31.462Z,22.90
2018-08-22T06:27:31.346Z,23.00
2018-08-22T06:29:24.292Z,23.20
2018-08-22T06:30:24.282Z,22.40
2018-08-22T06:32:17.229Z,23.80
2018-08-22T06:33:17.235Z,24.00
2018-08-22T06:35:10.189Z,23.30
2018-08-22T06:36:10.203Z,23.40
2018-08-22T06:38:03.110Z,23.50
2018-08-22T06:39:03.120Z,23.50
2018-08-22T06:40:56.081Z,24.60
2018-08-22T06:41:56.076Z,24.60
2018-08-22T06:43:49.038Z,23.30
2018-08-22T06:44:49.034Z,22.10
2018-08-22T06:46:41.967Z,22.10
2018-08-22T06:47:41.984Z,22.30
2018-08-22T06:49:34.936Z,21.30
2018-08-22T06:50:34.936Z,22.70
2018-08-22T06:52:27.870Z,23.10
2018-08-22T06:53:27.888Z,23.80
2018-08-22T06:55:20.847Z,22.00
2018-08-22T06:56:20.845Z,21.40
2018-08-22T06:58:13.780Z,22.70
2018-08-22T06:59:13.800Z,20.50
2018-08-22T07:01:06.764Z,21.60
2018-08-22T07:02:06.758Z,21.50
2018-08-22T07:03:59.715Z,20.50
2018-08-22T07:04:59.725Z,22.80
2018-08-22T07:06:52.663Z,23.80
2018-08-22T07:07:52.719Z,24.50
2018-08-22T07:09:45.634Z,25.90
2018-08-22T07:10:45.636Z,26.20
2018-08-22T07:12:38.587Z,26.10
2018-08-22T07:13:38.600Z,25.40
2018-08-22T07:15:31.558Z,25.10
2018-08-22T07:16:31.556Z,25.20
2018-08-22T07:18:24.502Z,23.70
2018-08-22T07:19:24.520Z,25.10
2018-08-22T07:21:17.477Z,25.40
2018-08-22T07:22:17.483Z,23.40
2018-08-22T07:24:10.440Z,24.90
2018-08-22T07:25:10.438Z,24.70
2018-08-22T07:27:03.387Z,24.90
2018-08-22T07:28:03.408Z,23.10
2018-08-22T07:29:56.377Z,24.70
2018-08-22T07:30:56.366Z,24.80
2018-08-22T07:32:49.320Z,23.10
2018-08-22T07:33:49.340Z,22.20
2018-08-22T07:35:42.312Z,23.60
2018-08-22T07:36:42.305Z,23.30
2018-08-22T07:38:35.244Z,23.80
2018-08-22T07:39:35.264Z,22.20
2018-08-22T07:41:28.218Z,24.80
2018-08-22T07:42:28.220Z,24.70
2018-08-22T07:44:21.180Z,24.00
2018-08-22T07:45:21.178Z,24.20
2018-08-22T07:47:14.170Z,23.90
2018-08-22T07:48:14.144Z,25.20
2018-08-22T07:50:07.139Z,24.80
2018-08-22T07:51:07.139Z,25.00
2018-08-22T07:53:00.049Z,24.90
2018-08-22T07:54:00.067Z,26.80
2018-08-22T07:55:53.022Z,26.60
2018-08-22T07:56:53.027Z,26.50
2018-08-22T07:58:45.988Z,28.20
2018-08-22T07:59:46.002Z,27.60
2018-08-22T08:01:39.025Z,27.90
2018-08-22T08:02:38.967Z,28.60
2018-08-22T08:04:31.902Z,29.30
2018-08-22T08:05:31.978Z,27.60
2018-08-22T08:07:24.880Z,28.10
2018-08-22T08:08:24.881Z,26.70
2018-08-22T08:10:17.838Z,26.50
2018-08-22T08:11:17.844Z,28.00
2018-08-22T08:13:10.792Z,27.30
2018-08-22T08:14:10.798Z,27.30
2018-08-22T08:16:03.760Z,25.70
2018-08-22T08:17:03.810Z,25.80
2018-08-22T08:18:56.704Z,23.70
2018-08-22T08:19:56.720Z,25.20
2018-08-22T08:21:49.685Z,25.80
2018-08-22T08:22:49.686Z,26.40
2018-08-22T08:24:42.628Z,25.90
2018-08-22T08:25:42.648Z,24.60
2018-08-22T08:27:35.604Z,23.40
2018-08-22T08:28:35.603Z,23.40
2018-08-22T08:30:28.586Z,24.40
2018-08-22T08:31:28.561Z,24.40
2018-08-22T08:33:21.500Z,23.50
2018-08-22T08:34:21.538Z,23.00
2018-08-22T08:36:14.492Z,24.70
2018-08-22T08:37:14.502Z,22.10
2018-08-22T08:39:07.410Z,25.90
2018-08-22T08:40:07.436Z,24.90
2018-08-22T08:42:00.399Z,24.90
2018-08-22T08:43:00.393Z,24.20
2018-08-22T08:44:53.323Z,23.20
2018-08-22T08:45:53.344Z,21.10
2018-08-22T08:47:46.303Z,21.10
2018-08-22T08:48:46.299Z,21.80
2018-08-22T08:50:39.270Z,20.30
2018-08-22T08:51:39.269Z,19.50
2018-08-22T08:53:32.209Z,17.90
2018-08-22T08:54:32.225Z,17.00
2018-08-22T08:56:25.181Z,19.90
2018-08-22T08:57:25.301Z,18.40
2018-08-22T08:59:18.122Z,18.10
2018-08-22T09:00:18.138Z,21.60
2018-08-22T09:02:11.104Z,19.80
2018-08-22T09:03:11.121Z,22.70
2018-08-22T09:05:04.037Z,18.90
2018-08-22T09:06:04.053Z,18.60
2018-08-22T09:07:57.010Z,17.90
2018-08-22T09:08:57.010Z,16.10
2018-08-22T09:10:50.065Z,15.20
2018-08-22T09:11:49.964Z,17.60
2018-08-22T09:13:42.908Z,15.70
2018-08-22T09:14:42.921Z,15.80
2018-08-22T09:16:35.881Z,14.10
2018-08-22T09:17:35.878Z,16.20
2018-08-22T09:19:28.839Z,16.60
2018-08-22T09:20:28.843Z,15.80
2018-08-22T09:22:21.800Z,19.00
2018-08-22T09:23:21.796Z,17.70
2018-08-22T09:25:14.736Z,17.30
2018-08-22T09:26:14.755Z,16.00
2018-08-22T09:28:07.760Z,14.80
2018-08-22T09:29:07.721Z,15.00
2018-08-22T09:31:00.670Z,16.50
2018-08-22T09:32:00.676Z,20.10
2018-08-22T09:33:53.614Z,17.00
2018-08-22T09:34:53.628Z,18.30
2018-08-22T09:36:46.592Z,17.00
2018-08-22T09:37:46.588Z,18.70
2018-08-22T09:39:39.577Z,17.10
2018-08-22T09:40:39.548Z,16.90
2018-08-22T09:42:32.522Z,22.90
2018-08-22T09:43:32.520Z,22.30
2018-08-22T09:45:25.461Z,19.50
2018-08-22T09:46:25.485Z,18.90
2018-08-22T09:48:18.443Z,16.70
2018-08-22T09:49:18.442Z,14.90
2018-08-22T09:51:11.410Z,21.80
2018-08-22T09:52:11.402Z,20.90
2018-08-22T09:54:04.336Z,21.20
2018-08-22T09:55:04.354Z,20.20
2018-08-22T09:56:57.316Z,22.30
2018-08-22T09:57:57.316Z,22.40
2018-08-22T09:59:50.257Z,18.90
2018-08-22T10:00:50.340Z,16.30
2018-08-22T10:02:43.251Z,18.10
2018-08-22T10:03:43.247Z,20.40
2018-08-22T10:05:36.185Z,21.40
2018-08-22T10:06:36.347Z,20.10
2018-08-22T10:08:29.160Z,21.30
2018-08-22T10:09:29.171Z,23.60
2018-08-22T10:11:22.101Z,21.00
2018-08-22T10:12:22.121Z,20.80
2018-08-22T10:14:15.076Z,17.20
2018-08-22T10:15:15.077Z,16.90
2018-08-22T10:17:08.041Z,17.40
2018-08-22T10:18:08.039Z,16.50
2018-08-22T10:20:00.978Z,13.30
2018-08-22T10:21:01.001Z,15.50
2018-08-22T10:22:53.955Z,17.60
2018-08-22T10:23:53.958Z,18.40
2018-08-22T10:25:46.902Z,15.40
2018-08-22T10:26:46.916Z,12.90
2018-08-22T10:28:39.875Z,18.40
2018-08-22T10:29:39.876Z,20.90
2018-08-22T10:31:32.827Z,15.10
2018-08-22T10:32:32.877Z,16.60
2018-08-22T10:34:25.803Z,15.50
2018-08-22T10:35:25.802Z,14.90
2018-08-22T10:37:18.759Z,17.20
2018-08-22T10:38:18.762Z,14.50
2018-08-22T10:40:11.700Z,14.10
2018-08-22T10:41:11.722Z,12.30
2018-08-22T10:43:04.682Z,12.80
2018-08-22T10:44:04.684Z,12.30
2018-08-22T10:45:57.610Z,14.40
2018-08-22T10:46:57.637Z,16.30
2018-08-22T10:48:50.595Z,13.90
2018-08-22T10:49:50.595Z,13.60
2018-08-22T10:51:43.527Z,16.50
2018-08-22T10:52:43.559Z,14.00
2018-08-22T10:54:36.509Z,15.30
2018-08-22T10:55:36.510Z,14.20
2018-08-22T10:57:29.499Z,13.60
2018-08-22T10:58:29.471Z,15.00
2018-08-22T11:00:22.408Z,17.20
2018-08-22T11:01:22.429Z,17.10
2018-08-22T11:03:15.386Z,17.90
2018-08-22T11:04:15.386Z,16.20
2018-08-22T11:06:08.333Z,17.30
2018-08-22T11:07:08.340Z,17.10
2018-08-22T11:09:01.308Z,17.30
2018-08-22T11:10:01.376Z,17.50
2018-08-22T11:11:54.257Z,18.70
2018-08-22T11:12:54.271Z,18.90
2018-08-22T11:14:47.241Z,17.20
2018-08-22T11:15:47.292Z,17.50
2018-08-22T11:17:40.199Z,19.70
2018-08-22T11:18:40.197Z,19.50
2018-08-22T11:20:33.141Z,19.00
2018-08-22T11:21:33.161Z,20.10
2018-08-22T11:23:26.136Z,21.30
2018-08-22T11:24:26.126Z,20.70
2018-08-22T11:26:19.057Z,18.00
2018-08-22T11:27:19.082Z,16.50
2018-08-22T11:29:12.045Z,18.60
2018-08-22T11:30:12.045Z,17.30
2018-08-22T11:32:04.979Z,17.90
2018-08-22T11:33:05.003Z,15.70
2018-08-22T11:34:57.958Z,16.40
2018-08-22T11:35:57.958Z,19.70
2018-08-22T11:37:50.933Z,19.60
2018-08-22T11:38:50.920Z,22.50
2018-08-22T11:40:43.860Z,16.50
2018-08-22T11:41:43.885Z,17.90
2018-08-22T11:43:36.844Z,16.20
2018-08-22T11:44:36.843Z,23.10
2018-08-22T11:46:29.787Z,20.50
2018-08-22T11:47:29.807Z,22.50
2018-08-22T11:49:22.770Z,19.80
2018-08-22T11:50:22.767Z,21.20
2018-08-22T11:52:15.712Z,18.00
2018-08-22T11:53:15.724Z,18.80
2018-08-22T11:55:08.683Z,21.80
2018-08-22T11:56:08.735Z,22.00
2018-08-22T11:58:01.625Z,22.00
2018-08-22T11:59:01.643Z,22.10
2018-08-22T12:00:54.601Z,22.10
2018-08-22T12:01:54.685Z,21.20
2018-08-22T12:03:47.568Z,24.70
2018-08-22T12:04:47.568Z,24.00
2018-08-22T12:06:40.509Z,25.00
2018-08-22T12:07:40.528Z,26.80
2018-08-22T12:09:33.483Z,25.40
2018-08-22T12:10:33.517Z,24.20
2018-08-22T12:12:26.425Z,23.10
2018-08-22T12:13:26.442Z,23.80
2018-08-22T12:15:19.405Z,27.40
2018-08-22T12:16:19.409Z,30.70
2018-08-22T12:18:12.361Z,28.80
2018-08-22T12:19:12.377Z,28.00
2018-08-22T12:21:05.338Z,27.90
2018-08-22T12:22:05.339Z,30.70
2018-08-22T12:23:58.297Z,29.60
2018-08-22T12:24:58.298Z,26.60
2018-08-22T12:26:51.238Z,31.30
2018-08-22T12:27:51.261Z,29.40
2018-08-22T12:29:44.222Z,26.40
2018-08-22T12:30:44.224Z,30.10
2018-08-22T12:32:37.157Z,26.70
2018-08-22T12:33:37.183Z,23.00
2018-08-22T12:35:30.144Z,33.70
2018-08-22T12:36:30.143Z,31.50
2018-08-22T12:38:23.088Z,31.50
2018-08-22T12:39:23.103Z,29.20
2018-08-22T12:41:16.064Z,28.50
2018-08-22T12:42:16.061Z,24.60
2018-08-22T12:44:09.032Z,27.40
2018-08-22T12:45:09.032Z,31.60
2018-08-22T12:47:01.984Z,29.70
2018-08-22T12:48:02.004Z,28.10
2018-08-22T12:49:54.969Z,27.20
2018-08-22T12:50:54.969Z,23.60
2018-08-22T12:52:47.929Z,27.50
2018-08-22T12:53:47.927Z,24.70
2018-08-22T12:55:40.895Z,27.20
2018-08-22T12:56:40.891Z,28.70
2018-08-22T12:58:33.838Z,29.10
2018-08-22T12:59:33.849Z,27.00
2018-08-22T13:01:26.812Z,28.60
2018-08-22T13:02:26.824Z,29.10
2018-08-22T13:04:19.779Z,30.20
2018-08-22T13:05:19.779Z,34.40
2018-08-22T13:07:12.721Z,28.90
2018-08-22T13:08:12.745Z,27.40
2018-08-22T13:10:05.712Z,24.30
2018-08-22T13:11:05.751Z,26.40
2018-08-22T13:12:58.647Z,23.50
2018-08-22T13:13:58.667Z,30.00
2018-08-22T13:15:51.629Z,24.10
2018-08-22T13:16:51.681Z,22.60
2018-08-22T13:18:44.569Z,26.30
2018-08-22T13:19:44.613Z,26.00
2018-08-22T13:21:37.567Z,24.90
2018-08-22T13:22:37.572Z,23.40
2018-08-22T13:24:30.552Z,19.70
2018-08-22T13:25:30.540Z,21.10
2018-08-22T13:27:23.481Z,20.50
2018-08-22T13:28:23.495Z,21.40
2018-08-22T13:30:16.511Z,19.90
2018-08-22T13:31:16.454Z,20.70
2018-08-22T13:33:09.408Z,22.80
2018-08-22T13:34:09.424Z,21.20
2018-08-22T13:36:02.401Z,21.50
2018-08-22T13:37:02.396Z,21.50
2018-08-22T13:38:55.357Z,21.70
2018-08-22T13:39:55.364Z,22.00
2018-08-22T13:41:48.323Z,22.00
2018-08-22T13:42:48.323Z,23.80
2018-08-22T13:44:41.284Z,22.60
2018-08-22T13:45:41.283Z,20.20
2018-08-22T13:47:34.234Z,21.80
2018-08-22T13:48:34.261Z,19.80
2018-08-22T13:50:27.223Z,21.00
2018-08-22T13:51:27.220Z,18.20
2018-08-22T13:53:20.204Z,17.00
2018-08-22T13:54:20.226Z,17.00
2018-08-22T13:56:13.235Z,18.60
2018-08-22T13:57:13.192Z,14.80
2018-08-22T13:59:06.156Z,14.30
2018-08-22T14:00:06.153Z,13.70
2018-08-22T14:01:59.118Z,13.60
2018-08-22T14:02:59.118Z,15.10
2018-08-22T14:04:52.091Z,14.70
2018-08-22T14:05:52.085Z,14.10
2018-08-22T14:07:45.031Z,14.40
2018-08-22T14:08:45.056Z,17.40
2018-08-22T14:10:38.015Z,14.90
2018-08-22T14:11:38.014Z,17.30
2018-08-22T14:13:30.961Z,17.80
2018-08-22T14:14:30.972Z,16.40
2018-08-22T14:16:23.942Z,16.10
2018-08-22T14:17:23.937Z,16.30
2018-08-22T14:19:16.876Z,18.30
2018-08-22T14:20:16.896Z,17.20
2018-08-22T14:22:09.858Z,17.10
2018-08-22T14:23:09.863Z,17.00
2018-08-22T14:25:02.825Z,15.90
2018-08-22T14:26:02.821Z,16.90
2018-08-22T14:27:55.771Z,16.30
2018-08-22T14:28:55.787Z,17.80
2018-08-22T14:30:48.747Z,14.30
2018-08-22T14:31:48.747Z,17.30
2018-08-22T14:33:41.750Z,17.10
2018-08-22T14:34:41.708Z,20.10
2018-08-22T14:36:34.678Z,17.40
2018-08-22T14:37:34.676Z,16.00
2018-08-22T14:39:27.715Z,15.80
2018-08-22T14:40:27.644Z,14.90
2018-08-22T14:42:20.604Z,18.60
2018-08-22T14:43:20.604Z,15.80
2018-08-22T14:45:13.561Z,14.60
2018-08-22T14:46:13.562Z,12.80
2018-08-22T14:48:06.507Z,13.00
2018-08-22T14:49:06.526Z,11.60
2018-08-22T14:50:59.488Z,12.90
2018-08-22T14:51:59.495Z,17.40
2018-08-22T14:53:52.430Z,15.70
2018-08-22T14:54:52.449Z,14.30
2018-08-22T14:56:45.410Z,14.30
2018-08-22T14:57:45.414Z,16.70
2018-08-22T14:59:38.402Z,20.40
2018-08-22T15:00:38.374Z,18.60
2018-08-22T15:02:31.441Z,18.20
2018-08-22T15:03:31.470Z,17.80
2018-08-22T15:05:24.290Z,18.90
2018-08-22T15:06:24.288Z,19.30
2018-08-22T15:08:17.232Z,19.10
2018-08-22T15:09:17.254Z,16.70
2018-08-22T15:11:10.232Z,15.10
2018-08-22T15:12:10.230Z,17.80
2018-08-22T15:14:03.167Z,16.40
2018-08-22T15:15:03.190Z,17.70
2018-08-22T15:16:56.148Z,15.70
2018-08-22T15:17:56.151Z,14.60
2018-08-22T15:19:49.090Z,12.20
2018-08-22T15:20:49.119Z,11.10
2018-08-22T15:22:42.074Z,13.00
2018-08-22T15:23:42.076Z,14.20
2018-08-22T15:25:35.048Z,15.40
2018-08-22T15:26:35.063Z,13.40
2018-08-22T15:28:27.984Z,13.10
2018-08-22T15:29:27.995Z,12.20
2018-08-22T15:31:20.951Z,11.10
2018-08-22T15:32:20.954Z,10.60
2018-08-22T15:34:13.894Z,10.60
2018-08-22T15:35:13.913Z,11.90
2018-08-22T15:37:06.874Z,12.50
2018-08-22T15:38:06.886Z,12.30
2018-08-22T15:39:59.818Z,12.80
2018-08-22T15:40:59.919Z,13.00
2018-08-22T15:42:52.804Z,11.30
2018-08-22T15:43:52.802Z,13.20
2018-08-22T15:45:45.782Z,11.90
2018-08-22T15:46:45.780Z,11.30
2018-08-22T15:48:38.703Z,11.70
2018-08-22T15:49:38.734Z,10.60
2018-08-22T15:51:31.691Z,13.40
2018-08-22T15:52:31.683Z,12.60
2018-08-22T15:54:24.625Z,11.80
2018-08-22T15:55:24.650Z,13.60
2018-08-22T15:57:17.634Z,15.00
2018-08-22T15:58:17.639Z,12.40
2018-08-22T16:00:10.578Z,9.50
2018-08-22T16:01:10.596Z,14.50
2018-08-22T16:03:03.567Z,11.70
2018-08-22T16:04:03.573Z,11.20
2018-08-22T16:05:56.508Z,14.60
2018-08-22T16:06:56.530Z,14.00
2018-08-22T16:08:49.533Z,11.40
2018-08-22T16:09:49.488Z,13.70
2018-08-22T16:11:42.460Z,12.40
2018-08-22T16:12:42.437Z,12.70
2018-08-22T16:14:35.439Z,16.10
2018-08-22T16:15:35.399Z,13.30
2018-08-22T16:17:28.376Z,12.50
2018-08-22T16:18:28.376Z,14.10
2018-08-22T16:20:21.316Z,12.10
2018-08-22T16:21:21.351Z,10.30
2018-08-22T16:23:14.293Z,14.00
2018-08-22T16:24:14.314Z,13.50
2018-08-22T16:26:07.240Z,13.20
2018-08-22T16:27:07.261Z,12.90
2018-08-22T16:29:00.235Z,14.50
2018-08-22T16:30:00.231Z,12.10
2018-08-22T16:31:53.187Z,14.50
2018-08-22T16:32:53.191Z,12.70
2018-08-22T16:34:46.129Z,18.70
2018-08-22T16:35:46.150Z,14.20
2018-08-22T16:37:39.110Z,14.70
2018-08-22T16:38:39.111Z,12.90
2018-08-22T16:40:32.057Z,15.30
2018-08-22T16:41:32.088Z,16.90
2018-08-22T16:43:25.030Z,16.50
2018-08-22T16:44:25.035Z,14.00
2018-08-22T16:46:17.967Z,14.20
2018-08-22T16:47:17.992Z,17.40
2018-08-22T16:49:10.993Z,14.90
2018-08-22T16:50:10.946Z,15.20
2018-08-22T16:52:03.907Z,17.00
2018-08-22T16:53:03.904Z,15.70
2018-08-22T16:54:56.856Z,14.90
2018-08-22T16:55:56.867Z,16.50
2018-08-22T16:57:49.829Z,12.30
2018-08-22T16:58:49.830Z,11.20
2018-08-22T17:00:42.771Z,12.90
2018-08-22T17:01:42.784Z,11.40
2018-08-22T17:03:35.736Z,12.50
2018-08-22T17:04:35.736Z,12.60
2018-08-22T17:06:28.692Z,11.90
2018-08-22T17:07:28.705Z,11.40
2018-08-22T17:09:21.666Z,12.50
2018-08-22T17:10:21.669Z,11.60
2018-08-22T17:12:14.632Z,12.00
2018-08-22T17:13:14.630Z,14.10
2018-08-22T17:15:07.617Z,15.20
2018-08-22T17:16:07.582Z,12.60
2018-08-22T17:18:00.547Z,13.30
2018-08-22T17:19:00.550Z,13.90
2018-08-22T17:20:53.511Z,13.90
2018-08-22T17:21:53.534Z,14.20
2018-08-22T17:23:46.487Z,14.30
2018-08-22T17:24:46.484Z,13.80
2018-08-22T17:26:39.423Z,11.60
2018-08-22T17:27:39.441Z,11.90
2018-08-22T17:29:32.400Z,11.70
2018-08-22T17:30:32.466Z,12.50
2018-08-22T17:32:25.357Z,13.20
2018-08-22T17:33:25.356Z,13.80
2018-08-22T17:35:18.296Z,13.10
2018-08-22T17:36:18.331Z,13.30
2018-08-22T17:38:11.274Z,13.00
2018-08-22T17:39:11.276Z,13.80
2018-08-22T17:41:04.214Z,13.70
2018-08-22T17:42:04.243Z,13.70
2018-08-22T17:43:57.225Z,17.20
2018-08-22T17:44:57.232Z,15.70
2018-08-22T17:46:50.164Z,16.60
2018-08-22T17:47:50.207Z,13.60
2018-08-22T17:49:43.138Z,15.70
2018-08-22T17:50:43.142Z,15.70
2018-08-22T17:52:36.097Z,19.70
2018-08-22T17:53:36.101Z,17.30
2018-08-22T17:55:29.118Z,20.00
2018-08-22T17:56:29.057Z,21.30
2018-08-22T17:58:22.008Z,22.70
2018-08-22T17:59:22.010Z,20.10
2018-08-22T18:01:15.023Z,27.80
2018-08-22T18:02:14.966Z,25.20
2018-08-22T18:04:07.925Z,27.80
2018-08-22T18:05:07.922Z,28.10
2018-08-22T18:07:00.862Z,28.60
2018-08-22T18:08:00.880Z,28.10
2018-08-22T18:09:53.837Z,29.00
2018-08-22T18:10:53.836Z,30.50
2018-08-22T18:12:46.797Z,29.50
2018-08-22T18:13:46.834Z,33.00
2018-08-22T18:15:39.737Z,29.80
2018-08-22T18:16:39.749Z,28.50
2018-08-22T18:18:32.709Z,30.10
2018-08-22T18:19:32.707Z,32.60
2018-08-22T18:21:25.652Z,30.30
2018-08-22T18:22:25.662Z,30.40
2018-08-22T18:24:18.616Z,37.90
2018-08-22T18:25:18.623Z,35.80
2018-08-22T18:27:11.552Z,37.80
2018-08-22T18:28:11.571Z,34.20
2018-08-22T18:30:04.553Z,32.20
2018-08-22T18:31:04.537Z,34.00
2018-08-22T18:32:57.498Z,33.00
2018-08-22T18:33:57.495Z,34.60
2018-08-22T18:35:50.427Z,34.00
2018-08-22T18:36:50.446Z,32.50
2018-08-22T18:38:43.402Z,35.10
2018-08-22T18:39:43.398Z,34.80
2018-08-22T18:41:36.341Z,34.60
2018-08-22T18:42:36.369Z,32.70
2018-08-22T18:44:29.317Z,33.90
2018-08-22T18:45:29.321Z,33.70
2018-08-22T18:47:22.254Z,33.50
2018-08-22T18:48:22.266Z,34.10
2018-08-22T18:50:15.250Z,34.70
2018-08-22T18:51:15.599Z,35.80
2018-08-22T18:53:08.203Z,37.00
2018-08-22T18:54:08.179Z,37.50
2018-08-22T18:56:01.128Z,35.20
2018-08-22T18:57:01.142Z,35.60
2018-08-22T18:58:54.102Z,36.60
2018-08-22T18:59:54.094Z,35.60
2018-08-22T19:01:47.051Z,36.10
2018-08-22T19:02:47.064Z,34.80
2018-08-22T19:04:40.019Z,36.00